Tahitian Princess — ZCDD8 — position and weather

sailwx.info

Track history (hours):
 
Tides and Currents Weather Stations Pressure Air Temp Water Temp Dewpoint Dewpoint Depression Visibility Wind Speed Wind Dir Waves Ship Positions

Tahitian Princess

Operator: P & O Irish Sea Ltd

Last reported at 2018-Aug-17 23:08 UTC. Time now 2018-Aug-18 00:47 UTC.
Position N 53°33' W 003°46'.

Length 167 m; draft 5.8 m.

Type: Passenger vessel. MMSI: 310362000.

Date/timePositionNaut miles runAvg speedWind from/ knotsBaromVisibWave heightAir tempDewpointWater temp
2018-Aug-17 23:08N 53°33' W 003°46'319.2
2018-Aug-17 23:00N 53°33' W 003°42'1019.3
2018-Aug-17 22:30N 53°33' W 003°26'917.3
2018-Aug-17 22:00N 53°32' W 003°12'815.1
2018-Aug-17 21:30N 53°27' W 003°01'0 0.5
2018-Aug-17 21:00N 53°27' W 003°01'0 0.9
2018-Aug-17 20:30N 53°27' W 003°01'0 0.0
2018-Aug-17 19:59N 53°27' W 003°01'0 0.0
2018-Aug-17 19:29N 53°27' W 003°01'0 0.0
2018-Aug-17 18:59N 53°27' W 003°01'0 0.0
2018-Aug-17 18:29N 53°27' W 003°01'0 0.0
2018-Aug-17 17:59N 53°27' W 003°01'0 0.0
2018-Aug-17 17:29N 53°27' W 003°01'0 0.3
2018-Aug-17 16:59N 53°27' W 003°01'0 0.8
2018-Aug-17 16:25N 53°27' W 003°01'0 0.4
2018-Aug-17 15:56N 53°27' W 003°01'0 0.0
2018-Aug-17 15:29N 53°27' W 003°01'2 4.6
2018-Aug-17 15:00N 53°28' W 003°04'3 6.5
2018-Aug-17 14:30N 53°31' W 003°07'1818.1
2018-Aug-17 13:29N 53°31' W 003°38'1020.1
2018-Aug-17 13:00N 53°33' W 003°54'84 9.7
2018-Aug-17 04:22N 53°21' W 006°13'1 2.0
2018-Aug-17 03:50N 53°21' W 006°11'412.5
2018-Aug-17 03:28N 53°20' W 006°04'1019.3
2018-Aug-17 02:59N 53°24' W 005°49'6618.2
2018-Aug-16 23:23N 53°34' W 003°60'718.4
2018-Aug-16 22:59N 53°34' W 003°47'918.4
2018-Aug-16 22:30N 53°33' W 003°33'917.4
2018-Aug-16 22:00N 53°32' W 003°18'815.3
2018-Aug-16 21:30N 53°30' W 003°06'4 8.5
2018-Aug-16 21:00N 53°27' W 003°01'0 0.5
2018-Aug-16 20:30N 53°27' W 003°01'0 0.5
2018-Aug-16 20:00N 53°27' W 003°01'0 0.0
2018-Aug-16 19:28N 53°27' W 003°01'0 0.0
2018-Aug-16 18:59N 53°27' W 003°01'0 0.0
2018-Aug-16 18:30N 53°27' W 003°01'0 0.0
2018-Aug-16 18:00N 53°27' W 003°01'0 0.0
2018-Aug-16 17:28N 53°27' W 003°01'0 0.0
2018-Aug-16 17:00N 53°27' W 003°01'0 0.0
2018-Aug-16 16:30N 53°27' W 003°01'0 0.0
2018-Aug-16 16:00N 53°27' W 003°01'0 0.8
2018-Aug-16 15:30N 53°27' W 003°01'0 0.3
2018-Aug-16 15:00N 53°27' W 003°01'510.7
2018-Aug-16 14:30N 53°31' W 003°07'918.2
2018-Aug-16 14:00N 53°31' W 003°22'1019.4
2018-Aug-16 13:30N 53°31' W 003°39'1019.7
2018-Aug-16 13:00N 53°33' W 003°55'7820.0
2018-Aug-16 09:06N 53°20' W 006°04'215.8
2018-Aug-16 08:57N 53°21' W 006°08'3 2.0
2018-Aug-16 07:24N 53°21' W 006°13'0 0.0
2018-Aug-16 07:00N 53°21' W 006°13'0 0.0
2018-Aug-16 06:30N 53°21' W 006°13'0 0.0
2018-Aug-16 06:00N 53°21' W 006°13'0 0.0
2018-Aug-16 04:58N 53°21' W 006°13'0 0.0
2018-Aug-16 04:29N 53°21' W 006°13'4 3.8
2018-Aug-16 03:30N 53°20' W 006°07'1017.3
2018-Aug-16 02:55N 53°23' W 005°51'6518.1
2018-Aug-15 23:18N 53°34' W 004°02'817.8
2018-Aug-15 22:52N 53°34' W 003°49'617.7
2018-Aug-15 22:30N 53°33' W 003°39'816.7
2018-Aug-15 22:00N 53°33' W 003°25'816.1
2018-Aug-15 21:30N 53°32' W 003°11'714.6
2018-Aug-15 21:00N 53°27' W 003°02'0 0.7
2018-Aug-15 20:30N 53°27' W 003°01'0 0.9
2018-Aug-15 20:00N 53°27' W 003°01'0 0.0
2018-Aug-15 19:30N 53°27' W 003°01'0 0.0
2018-Aug-15 19:00N 53°27' W 003°01'0 0.0
2018-Aug-15 18:30N 53°27' W 003°01'0 0.0
2018-Aug-15 18:00N 53°27' W 003°01'0 0.0
2018-Aug-15 17:30N 53°27' W 003°01'0 0.0
2018-Aug-15 17:00N 53°27' W 003°01'0 0.0
2018-Aug-15 16:30N 53°27' W 003°01'0 0.0
2018-Aug-15 16:00N 53°27' W 003°01'0 0.3
2018-Aug-15 15:30N 53°27' W 003°01'0 0.8
2018-Aug-15 15:00N 53°27' W 003°01'511.0
2018-Aug-15 14:30N 53°31' W 003°07'917.7
2018-Aug-15 14:00N 53°31' W 003°22'918.8
2018-Aug-15 13:30N 53°31' W 003°38'1019.3
2018-Aug-15 13:00N 53°32' W 003°54'8310.1
2018-Aug-15 04:43N 53°21' W 006°13'0 0.0
2018-Aug-15 04:26N 53°21' W 006°13'0 0.3
2018-Aug-15 03:57N 53°21' W 006°13'911.4
2018-Aug-15 03:10N 53°22' W 005°58'6819.1
2018-Aug-14 23:34N 53°34' W 004°05'718.0
2018-Aug-14 23:11N 53°34' W 003°53'518.0
2018-Aug-14 22:56N 53°34' W 003°45'818.0
2018-Aug-14 22:30N 53°33' W 003°33'918.0
2018-Aug-14 22:00N 53°31' W 003°18'713.7
2018-Aug-14 21:30N 53°31' W 003°06'5 9.4
2018-Aug-14 21:00N 53°27' W 003°01'0 0.6
2018-Aug-14 20:30N 53°27' W 003°01'0 0.4
2018-Aug-14 19:57N 53°27' W 003°01'0 0.0
2018-Aug-14 19:30N 53°27' W 003°01'0 0.0
2018-Aug-14 19:00N 53°27' W 003°01'0 0.0
2018-Aug-14 18:30N 53°27' W 003°01'0 0.0
2018-Aug-14 18:00N 53°27' W 003°01'0 0.0
2018-Aug-14 17:30N 53°27' W 003°01'0 0.0
2018-Aug-14 17:00N 53°27' W 003°01'0 0.0
2018-Aug-14 16:30N 53°27' W 003°01'0 0.0
2018-Aug-14 16:00N 53°27' W 003°01'0 0.7
2018-Aug-14 15:30N 53°27' W 003°01'0 0.4
2018-Aug-14 15:00N 53°27' W 003°01'714.5
2018-Aug-14 14:30N 53°32' W 003°10'917.6
2018-Aug-14 14:00N 53°31' W 003°25'1019.7
2018-Aug-14 13:30N 53°31' W 003°41'1020.3
2018-Aug-14 13:00N 53°33' W 003°58'6821.0
2018-Aug-14 09:47N 53°24' W 005°51'719.6
2018-Aug-14 09:24N 53°20' W 006°02'612.3
2018-Aug-14 08:55N 53°21' W 006°12'1 1.1
2018-Aug-14 08:26N 53°21' W 006°13'0 0.0
2018-Aug-14 07:59N 53°21' W 006°13'0 0.0
2018-Aug-14 07:31N 53°21' W 006°13'0 0.0
2018-Aug-14 07:00N 53°21' W 006°13'0 0.0
2018-Aug-14 04:46N 53°21' W 006°13'0 0.0
2018-Aug-14 04:14N 53°21' W 006°13'0 0.2
2018-Aug-14 03:59N 53°21' W 006°13'7 9.0
2018-Aug-14 03:13N 53°21' W 006°01'717.6
2018-Aug-14 02:48N 53°24' W 005°50'5218.1
2018-Aug-13 23:55N 53°35' W 004°24'818.6
2018-Aug-13 23:30N 53°34' W 004°11'918.3
2018-Aug-13 23:00N 53°34' W 003°56'917.8
2018-Aug-13 22:30N 53°33' W 003°41'816.1
2018-Aug-13 22:01N 53°33' W 003°27'816.2
2018-Aug-13 21:31N 53°31' W 003°14'612.8
2018-Aug-13 21:00N 53°29' W 003°04'3 5.1
2018-Aug-13 20:30N 53°27' W 003°01'0 0.9
2018-Aug-13 20:00N 53°27' W 003°01'0 0.0
2018-Aug-13 19:29N 53°27' W 003°01'0 0.0
2018-Aug-13 18:59N 53°27' W 003°01'0 0.0
2018-Aug-13 18:29N 53°27' W 003°01'0 0.0
2018-Aug-13 17:56N 53°27' W 003°01'0 0.0
2018-Aug-13 17:29N 53°27' W 003°01'0 0.0
2018-Aug-13 16:59N 53°27' W 003°01'0 0.0
2018-Aug-13 16:29N 53°27' W 003°01'0 0.0
2018-Aug-13 15:59N 53°27' W 003°01'0 0.0
2018-Aug-13 15:26N 53°27' W 003°01'0 0.0
2018-Aug-13 14:50N 53°27' W 003°01'0 0.0
2018-Aug-13 14:29N 53°27' W 003°01'0 0.0
2018-Aug-13 13:59N 53°27' W 003°01'0 0.0
2018-Aug-13 13:29N 53°27' W 003°01'0 0.0
2018-Aug-13 12:59N 53°27' W 003°01'0 0.0
2018-Aug-13 12:26N 53°27' W 003°01'0 0.0
2018-Aug-13 11:56N 53°27' W 003°01'0 0.0
2018-Aug-13 11:26N 53°27' W 003°01'0 0.0
2018-Aug-13 10:59N 53°27' W 003°01'0 0.0
2018-Aug-13 10:29N 53°27' W 003°01'0 0.0
2018-Aug-13 09:56N 53°27' W 003°01'0 0.0
2018-Aug-13 09:29N 53°27' W 003°01'0 0.0
2018-Aug-13 08:50N 53°27' W 003°01'0 0.0
2018-Aug-13 08:26N 53°27' W 003°01'0 0.0
2018-Aug-13 07:56N 53°27' W 003°01'0 0.0
2018-Aug-13 07:29N 53°27' W 003°01'0 0.0
2018-Aug-13 06:59N 53°27' W 003°01'0 0.0
2018-Aug-13 06:26N 53°27' W 003°01'0 0.0
2018-Aug-13 05:56N 53°27' W 003°01'0 0.0
2018-Aug-13 05:29N 53°27' W 003°01'0 0.1
2018-Aug-13 04:56N 53°27' W 003°01'0 0.9
2018-Aug-13 04:28N 53°27' W 003°01'0 0.3
2018-Aug-13 04:00N 53°27' W 003°01'612.8
2018-Aug-13 03:30N 53°32' W 003°08'815.9
2018-Aug-13 03:00N 53°31' W 003°21'713.3
2018-Aug-13 02:30N 53°32' W 003°33'713.0
2018-Aug-13 02:00N 53°31' W 003°44'713.3
2018-Aug-13 01:30N 53°33' W 003°55'713.7
2018-Aug-13 01:00N 53°34' W 004°06'713.9
2018-Aug-13 00:30N 53°35' W 004°18'713.9
2018-Aug-13 00:00N 53°37' W 004°29'914.8
2018-Aug-12 23:25N 53°36' W 004°43'4915.6
2018-Aug-12 20:16N 53°21' W 006°02'415.5
2018-Aug-12 20:00N 53°21' W 006°09'2 0.2
2018-Aug-12 04:37N 53°21' W 006°13'2 5.6
2018-Aug-12 04:13N 53°21' W 006°09'313.2
2018-Aug-12 04:00N 53°20' W 006°05'7617.1
2018-Aug-11 23:34N 53°34' W 003°59'116.8
2018-Aug-11 23:30N 53°34' W 003°57'1016.8
2018-Aug-11 22:55N 53°33' W 003°41'716.2
2018-Aug-11 22:30N 53°33' W 003°30'816.6
2018-Aug-11 22:01N 53°31' W 003°16'815.1
2018-Aug-11 21:31N 53°29' W 003°04'3 5.0
2018-Aug-11 21:00N 53°27' W 003°01'0 0.9
2018-Aug-11 20:30N 53°27' W 003°01'0 0.0
2018-Aug-11 20:00N 53°27' W 003°01'0 0.0
2018-Aug-11 19:28N 53°27' W 003°01'0 0.0
2018-Aug-11 19:00N 53°27' W 003°01'0 0.0
2018-Aug-11 18:30N 53°27' W 003°01'0 0.0
2018-Aug-11 18:00N 53°27' W 003°01'0 0.0
2018-Aug-11 17:30N 53°27' W 003°01'0 0.0
2018-Aug-11 17:00N 53°27' W 003°01'0 0.0
2018-Aug-11 16:30N 53°27' W 003°01'0 0.0
2018-Aug-11 16:00N 53°27' W 003°01'0 0.8
2018-Aug-11 15:30N 53°27' W 003°01'0 0.4
2018-Aug-11 15:00N 53°27' W 003°01'613.2
2018-Aug-11 14:30N 53°32' W 003°09'816.0
2018-Aug-11 14:00N 53°31' W 003°22'918.2
2018-Aug-11 13:30N 53°31' W 003°38'918.4
2018-Aug-11 13:00N 53°32' W 003°53'1018.6
2018-Aug-11 12:29N 53°34' W 004°09'7119.3
2018-Aug-11 08:50N 53°20' W 006°05'5 1.0
2018-Aug-11 04:10N 53°21' W 006°13'0 0.6
2018-Aug-11 04:00N 53°21' W 006°13'6 9.5
2018-Aug-11 03:20N 53°21' W 006°02'718.6
2018-Aug-11 02:57N 53°24' W 005°51'1017.9
2018-Aug-11 02:24N 53°26' W 005°35'717.0
2018-Aug-11 02:00N 53°28' W 005°24'4919.5
2018-Aug-10 23:29N 53°34' W 004°03'918.8
2018-Aug-10 22:59N 53°34' W 003°47'918.3
2018-Aug-10 22:30N 53°33' W 003°32'918.0
2018-Aug-10 22:00N 53°32' W 003°17'815.4
2018-Aug-10 21:30N 53°29' W 003°05'3 6.0
2018-Aug-10 21:00N 53°27' W 003°01'0 0.9
2018-Aug-10 20:30N 53°27' W 003°01'0 0.0
2018-Aug-10 20:00N 53°27' W 003°01'0 0.0
2018-Aug-10 19:30N 53°27' W 003°01'0 0.0
2018-Aug-10 19:00N 53°27' W 003°01'0 0.0
2018-Aug-10 18:30N 53°27' W 003°01'0 0.0
2018-Aug-10 18:00N 53°27' W 003°01'0 0.0
2018-Aug-10 17:30N 53°27' W 003°01'0 0.0
2018-Aug-10 17:00N 53°27' W 003°01'0 0.0
2018-Aug-10 16:28N 53°27' W 003°01'0 0.0
2018-Aug-10 16:00N 53°27' W 003°01'0 0.8
2018-Aug-10 15:30N 53°27' W 003°01'0 0.4
2018-Aug-10 15:00N 53°27' W 003°01'713.1
2018-Aug-10 14:30N 53°32' W 003°09'816.1
2018-Aug-10 14:00N 53°31' W 003°23'918.5
2018-Aug-10 13:30N 53°31' W 003°38'918.6
2018-Aug-10 13:00N 53°32' W 003°54'8218.6
2018-Aug-10 08:35N 53°21' W 006°10'2 7.0
2018-Aug-10 08:20N 53°21' W 006°13'0 0.3
2018-Aug-10 07:54N 53°21' W 006°13'0 0.0
2018-Aug-10 07:27N 53°21' W 006°13'0 0.0
2018-Aug-10 06:59N 53°21' W 006°13'0 0.0
2018-Aug-10 06:21N 53°21' W 006°13'0 0.0
2018-Aug-10 05:05N 53°21' W 006°13'0 0.0
2018-Aug-10 04:47N 53°21' W 006°13'0 0.0
2018-Aug-10 04:26N 53°21' W 006°13'0 0.2
2018-Aug-10 03:59N 53°21' W 006°13'4 8.5
2018-Aug-10 03:30N 53°20' W 006°06'917.0
2018-Aug-10 03:00N 53°23' W 005°52'7318.7
2018-Aug-09 23:04N 53°34' W 003°50'517.9
2018-Aug-09 22:46N 53°34' W 003°42'518.4
2018-Aug-09 22:30N 53°34' W 003°33'918.1
2018-Aug-09 22:00N 53°32' W 003°18'816.0
2018-Aug-09 21:29N 53°29' W 003°05'4 8.6
2018-Aug-09 21:00N 53°26' W 003°01'0 0.2
2018-Aug-09 20:30N 53°26' W 003°01'1 2.0
2018-Aug-09 20:00N 53°27' W 003°01'0 0.0
2018-Aug-09 19:27N 53°27' W 003°01'0 0.0
2018-Aug-09 19:00N 53°27' W 003°01'0 0.0
2018-Aug-09 18:30N 53°27' W 003°01'0 0.0
2018-Aug-09 18:00N 53°27' W 003°01'0 0.0
2018-Aug-09 17:30N 53°27' W 003°01'0 0.0
2018-Aug-09 17:00N 53°27' W 003°01'0 0.0
2018-Aug-09 16:27N 53°27' W 003°01'0 0.6
2018-Aug-09 16:00N 53°27' W 003°01'1 1.7
2018-Aug-09 15:30N 53°26' W 003°01'0 0.0
2018-Aug-09 15:00N 53°26' W 003°01'0 0.3
2018-Aug-09 14:30N 53°26' W 003°01'713.1
2018-Aug-09 13:59N 53°32' W 003°08'816.0
2018-Aug-09 13:30N 53°31' W 003°21'919.0
2018-Aug-09 13:00N 53°31' W 003°37'918.8
2018-Aug-09 12:30N 53°32' W 003°53'8413.6
2018-Aug-09 06:18N 53°21' W 006°13'0 0.0
2018-Aug-09 05:12N 53°21' W 006°13'0 0.0
2018-Aug-09 04:46N 53°21' W 006°13'0 0.1
2018-Aug-09 04:03N 53°21' W 006°13'0 0.6
2018-Aug-09 03:58N 53°21' W 006°13'4 8.3
2018-Aug-09 03:27N 53°20' W 006°06'1016.5
2018-Aug-09 02:50N 53°24' W 005°50'6017.2
2018-Aug-08 23:23N 53°34' W 004°11'1517.9
2018-Aug-08 22:34N 53°34' W 003°47'219.2
2018-Aug-08 22:27N 53°33' W 003°43'818.9
2018-Aug-08 22:00N 53°33' W 003°29'918.6
2018-Aug-08 21:31N 53°31' W 003°14'815.7
2018-Aug-08 21:00N 53°27' W 003°02'1 1.1
2018-Aug-08 20:30N 53°27' W 003°01'0 0.6
2018-Aug-08 20:00N 53°27' W 003°01'0 0.0
2018-Aug-08 19:30N 53°27' W 003°01'0 0.0
2018-Aug-08 19:00N 53°27' W 003°01'0 0.0
2018-Aug-08 18:30N 53°27' W 003°01'0 0.0
2018-Aug-08 18:00N 53°27' W 003°01'0 0.0
2018-Aug-08 17:30N 53°27' W 003°01'0 0.0
2018-Aug-08 17:00N 53°27' W 003°01'0 0.0
2018-Aug-08 16:29N 53°27' W 003°01'1 1.3
2018-Aug-08 16:00N 53°27' W 003°01'0 0.8
2018-Aug-08 15:31N 53°26' W 003°01'0 0.3
2018-Aug-08 15:00N 53°26' W 003°01'612.6
2018-Aug-08 14:30N 53°31' W 003°07'815.7
2018-Aug-08 14:00N 53°31' W 003°20'817.0
2018-Aug-08 13:31N 53°31' W 003°35'916.5
2018-Aug-08 13:00N 53°32' W 003°49'916.5
2018-Aug-08 12:27N 53°34' W 004°03'71 7.7
2018-Aug-08 03:16N 53°21' W 006°00'716.6
2018-Aug-08 02:50N 53°24' W 005°49'  
Track history (hours):
 
Tides and Currents Weather Stations Pressure Air Temp Water Temp Dewpoint Dewpoint Depression Visibility Wind Speed Wind Dir Waves Ship Positions

Tahitian Princess

Operator: P & O Irish Sea Ltd

Last reported at 2018-Aug-17 23:08 UTC. Time now 2018-Aug-18 00:47 UTC.
Position N 53°33' W 003°46'.

Length 167 m; draft 5.8 m.

Type: Passenger vessel. MMSI: 310362000.

Date/timePositionNaut miles runAvg speedWind from/ knotsBaromVisibWave heightAir tempDewpointWater temp
2018-Aug-17 23:08N 53°33' W 003°46'319.2
2018-Aug-17 23:00N 53°33' W 003°42'1019.3
2018-Aug-17 22:30N 53°33' W 003°26'917.3
2018-Aug-17 22:00N 53°32' W 003°12'815.1
2018-Aug-17 21:30N 53°27' W 003°01'0 0.5
2018-Aug-17 21:00N 53°27' W 003°01'0 0.9
2018-Aug-17 20:30N 53°27' W 003°01'0 0.0
2018-Aug-17 19:59N 53°27' W 003°01'0 0.0
2018-Aug-17 19:29N 53°27' W 003°01'0 0.0
2018-Aug-17 18:59N 53°27' W 003°01'0 0.0
2018-Aug-17 18:29N 53°27' W 003°01'0 0.0
2018-Aug-17 17:59N 53°27' W 003°01'0 0.0
2018-Aug-17 17:29N 53°27' W 003°01'0 0.3
2018-Aug-17 16:59N 53°27' W 003°01'0 0.8
2018-Aug-17 16:25N 53°27' W 003°01'0 0.4
2018-Aug-17 15:56N 53°27' W 003°01'0 0.0
2018-Aug-17 15:29N 53°27' W 003°01'2 4.6
2018-Aug-17 15:00N 53°28' W 003°04'3 6.5
2018-Aug-17 14:30N 53°31' W 003°07'1818.1
2018-Aug-17 13:29N 53°31' W 003°38'1020.1
2018-Aug-17 13:00N 53°33' W 003°54'84 9.7
2018-Aug-17 04:22N 53°21' W 006°13'1 2.0
2018-Aug-17 03:50N 53°21' W 006°11'412.5
2018-Aug-17 03:28N 53°20' W 006°04'1019.3
2018-Aug-17 02:59N 53°24' W 005°49'6618.2
2018-Aug-16 23:23N 53°34' W 003°60'718.4
2018-Aug-16 22:59N 53°34' W 003°47'918.4
2018-Aug-16 22:30N 53°33' W 003°33'917.4
2018-Aug-16 22:00N 53°32' W 003°18'815.3
2018-Aug-16 21:30N 53°30' W 003°06'4 8.5
2018-Aug-16 21:00N 53°27' W 003°01'0 0.5
2018-Aug-16 20:30N 53°27' W 003°01'0 0.5
2018-Aug-16 20:00N 53°27' W 003°01'0 0.0
2018-Aug-16 19:28N 53°27' W 003°01'0 0.0
2018-Aug-16 18:59N 53°27' W 003°01'0 0.0
2018-Aug-16 18:30N 53°27' W 003°01'0 0.0
2018-Aug-16 18:00N 53°27' W 003°01'0 0.0
2018-Aug-16 17:28N 53°27' W 003°01'0 0.0
2018-Aug-16 17:00N 53°27' W 003°01'0 0.0
2018-Aug-16 16:30N 53°27' W 003°01'0 0.0
2018-Aug-16 16:00N 53°27' W 003°01'0 0.8
2018-Aug-16 15:30N 53°27' W 003°01'0 0.3
2018-Aug-16 15:00N 53°27' W 003°01'510.7
2018-Aug-16 14:30N 53°31' W 003°07'918.2
2018-Aug-16 14:00N 53°31' W 003°22'1019.4
2018-Aug-16 13:30N 53°31' W 003°39'1019.7
2018-Aug-16 13:00N 53°33' W 003°55'7820.0
2018-Aug-16 09:06N 53°20' W 006°04'215.8
2018-Aug-16 08:57N 53°21' W 006°08'3 2.0
2018-Aug-16 07:24N 53°21' W 006°13'0 0.0
2018-Aug-16 07:00N 53°21' W 006°13'0 0.0
2018-Aug-16 06:30N 53°21' W 006°13'0 0.0
2018-Aug-16 06:00N 53°21' W 006°13'0 0.0
2018-Aug-16 04:58N 53°21' W 006°13'0 0.0
2018-Aug-16 04:29N 53°21' W 006°13'4 3.8
2018-Aug-16 03:30N 53°20' W 006°07'1017.3
2018-Aug-16 02:55N 53°23' W 005°51'6518.1
2018-Aug-15 23:18N 53°34' W 004°02'817.8
2018-Aug-15 22:52N 53°34' W 003°49'617.7
2018-Aug-15 22:30N 53°33' W 003°39'816.7
2018-Aug-15 22:00N 53°33' W 003°25'816.1
2018-Aug-15 21:30N 53°32' W 003°11'714.6
2018-Aug-15 21:00N 53°27' W 003°02'0 0.7
2018-Aug-15 20:30N 53°27' W 003°01'0 0.9
2018-Aug-15 20:00N 53°27' W 003°01'0 0.0
2018-Aug-15 19:30N 53°27' W 003°01'0 0.0
2018-Aug-15 19:00N 53°27' W 003°01'0 0.0
2018-Aug-15 18:30N 53°27' W 003°01'0 0.0
2018-Aug-15 18:00N 53°27' W 003°01'0 0.0
2018-Aug-15 17:30N 53°27' W 003°01'0 0.0
2018-Aug-15 17:00N 53°27' W 003°01'0 0.0
2018-Aug-15 16:30N 53°27' W 003°01'0 0.0
2018-Aug-15 16:00N 53°27' W 003°01'0 0.3
2018-Aug-15 15:30N 53°27' W 003°01'0 0.8
2018-Aug-15 15:00N 53°27' W 003°01'511.0
2018-Aug-15 14:30N 53°31' W 003°07'917.7
2018-Aug-15 14:00N 53°31' W 003°22'918.8
2018-Aug-15 13:30N 53°31' W 003°38'1019.3
2018-Aug-15 13:00N 53°32' W 003°54'8310.1
2018-Aug-15 04:43N 53°21' W 006°13'0 0.0
2018-Aug-15 04:26N 53°21' W 006°13'0 0.3
2018-Aug-15 03:57N 53°21' W 006°13'911.4
2018-Aug-15 03:10N 53°22' W 005°58'6819.1
2018-Aug-14 23:34N 53°34' W 004°05'718.0
2018-Aug-14 23:11N 53°34' W 003°53'518.0
2018-Aug-14 22:56N 53°34' W 003°45'818.0
2018-Aug-14 22:30N 53°33' W 003°33'918.0
2018-Aug-14 22:00N 53°31' W 003°18'713.7
2018-Aug-14 21:30N 53°31' W 003°06'5 9.4
2018-Aug-14 21:00N 53°27' W 003°01'0 0.6
2018-Aug-14 20:30N 53°27' W 003°01'0 0.4
2018-Aug-14 19:57N 53°27' W 003°01'0 0.0
2018-Aug-14 19:30N 53°27' W 003°01'0 0.0
2018-Aug-14 19:00N 53°27' W 003°01'0 0.0
2018-Aug-14 18:30N 53°27' W 003°01'0 0.0
2018-Aug-14 18:00N 53°27' W 003°01'0 0.0
2018-Aug-14 17:30N 53°27' W 003°01'0 0.0
2018-Aug-14 17:00N 53°27' W 003°01'0 0.0
2018-Aug-14 16:30N 53°27' W 003°01'0 0.0
2018-Aug-14 16:00N 53°27' W 003°01'0 0.7
2018-Aug-14 15:30N 53°27' W 003°01'0 0.4
2018-Aug-14 15:00N 53°27' W 003°01'714.5
2018-Aug-14 14:30N 53°32' W 003°10'917.6
2018-Aug-14 14:00N 53°31' W 003°25'1019.7
2018-Aug-14 13:30N 53°31' W 003°41'1020.3
2018-Aug-14 13:00N 53°33' W 003°58'6821.0
2018-Aug-14 09:47N 53°24' W 005°51'719.6
2018-Aug-14 09:24N 53°20' W 006°02'612.3
2018-Aug-14 08:55N 53°21' W 006°12'1 1.1
2018-Aug-14 08:26N 53°21' W 006°13'0 0.0
2018-Aug-14 07:59N 53°21' W 006°13'0 0.0
2018-Aug-14 07:31N 53°21' W 006°13'0 0.0
2018-Aug-14 07:00N 53°21' W 006°13'0 0.0
2018-Aug-14 04:46N 53°21' W 006°13'0 0.0
2018-Aug-14 04:14N 53°21' W 006°13'0 0.2
2018-Aug-14 03:59N 53°21' W 006°13'7 9.0
2018-Aug-14 03:13N 53°21' W 006°01'717.6
2018-Aug-14 02:48N 53°24' W 005°50'5218.1
2018-Aug-13 23:55N 53°35' W 004°24'818.6
2018-Aug-13 23:30N 53°34' W 004°11'918.3
2018-Aug-13 23:00N 53°34' W 003°56'917.8
2018-Aug-13 22:30N 53°33' W 003°41'816.1
2018-Aug-13 22:01N 53°33' W 003°27'816.2
2018-Aug-13 21:31N 53°31' W 003°14'612.8
2018-Aug-13 21:00N 53°29' W 003°04'3 5.1
2018-Aug-13 20:30N 53°27' W 003°01'0 0.9
2018-Aug-13 20:00N 53°27' W 003°01'0 0.0
2018-Aug-13 19:29N 53°27' W 003°01'0 0.0
2018-Aug-13 18:59N 53°27' W 003°01'0 0.0
2018-Aug-13 18:29N 53°27' W 003°01'0 0.0
2018-Aug-13 17:56N 53°27' W 003°01'0 0.0
2018-Aug-13 17:29N 53°27' W 003°01'0 0.0
2018-Aug-13 16:59N 53°27' W 003°01'0 0.0
2018-Aug-13 16:29N 53°27' W 003°01'0 0.0
2018-Aug-13 15:59N 53°27' W 003°01'0 0.0
2018-Aug-13 15:26N 53°27' W 003°01'0 0.0
2018-Aug-13 14:50N 53°27' W 003°01'0 0.0
2018-Aug-13 14:29N 53°27' W 003°01'0 0.0
2018-Aug-13 13:59N 53°27' W 003°01'0 0.0
2018-Aug-13 13:29N 53°27' W 003°01'0 0.0
2018-Aug-13 12:59N 53°27' W 003°01'0 0.0
2018-Aug-13 12:26N 53°27' W 003°01'0 0.0
2018-Aug-13 11:56N 53°27' W 003°01'0 0.0
2018-Aug-13 11:26N 53°27' W 003°01'0 0.0
2018-Aug-13 10:59N 53°27' W 003°01'0 0.0
2018-Aug-13 10:29N 53°27' W 003°01'0 0.0
2018-Aug-13 09:56N 53°27' W 003°01'0 0.0
2018-Aug-13 09:29N 53°27' W 003°01'0 0.0
2018-Aug-13 08:50N 53°27' W 003°01'0 0.0
2018-Aug-13 08:26N 53°27' W 003°01'0 0.0
2018-Aug-13 07:56N 53°27' W 003°01'0 0.0
2018-Aug-13 07:29N 53°27' W 003°01'0 0.0
2018-Aug-13 06:59N 53°27' W 003°01'0 0.0
2018-Aug-13 06:26N 53°27' W 003°01'0 0.0
2018-Aug-13 05:56N 53°27' W 003°01'0 0.0
2018-Aug-13 05:29N 53°27' W 003°01'0 0.1
2018-Aug-13 04:56N 53°27' W 003°01'0 0.9
2018-Aug-13 04:28N 53°27' W 003°01'0 0.3
2018-Aug-13 04:00N 53°27' W 003°01'612.8
2018-Aug-13 03:30N 53°32' W 003°08'815.9
2018-Aug-13 03:00N 53°31' W 003°21'713.3
2018-Aug-13 02:30N 53°32' W 003°33'713.0
2018-Aug-13 02:00N 53°31' W 003°44'713.3
2018-Aug-13 01:30N 53°33' W 003°55'713.7
2018-Aug-13 01:00N 53°34' W 004°06'713.9
2018-Aug-13 00:30N 53°35' W 004°18'713.9
2018-Aug-13 00:00N 53°37' W 004°29'914.8
2018-Aug-12 23:25N 53°36' W 004°43'4915.6
2018-Aug-12 20:16N 53°21' W 006°02'415.5
2018-Aug-12 20:00N 53°21' W 006°09'2 0.2
2018-Aug-12 04:37N 53°21' W 006°13'2 5.6
2018-Aug-12 04:13N 53°21' W 006°09'313.2
2018-Aug-12 04:00N 53°20' W 006°05'7617.1
2018-Aug-11 23:34N 53°34' W 003°59'116.8
2018-Aug-11 23:30N 53°34' W 003°57'1016.8
2018-Aug-11 22:55N 53°33' W 003°41'716.2
2018-Aug-11 22:30N 53°33' W 003°30'816.6
2018-Aug-11 22:01N 53°31' W 003°16'815.1
2018-Aug-11 21:31N 53°29' W 003°04'3 5.0
2018-Aug-11 21:00N 53°27' W 003°01'0 0.9
2018-Aug-11 20:30N 53°27' W 003°01'0 0.0
2018-Aug-11 20:00N 53°27' W 003°01'0 0.0
2018-Aug-11 19:28N 53°27' W 003°01'0 0.0
2018-Aug-11 19:00N 53°27' W 003°01'0 0.0
2018-Aug-11 18:30N 53°27' W 003°01'0 0.0
2018-Aug-11 18:00N 53°27' W 003°01'0 0.0
2018-Aug-11 17:30N 53°27' W 003°01'0 0.0
2018-Aug-11 17:00N 53°27' W 003°01'0 0.0
2018-Aug-11 16:30N 53°27' W 003°01'0 0.0
2018-Aug-11 16:00N 53°27' W 003°01'0 0.8
2018-Aug-11 15:30N 53°27' W 003°01'0 0.4
2018-Aug-11 15:00N 53°27' W 003°01'613.2
2018-Aug-11 14:30N 53°32' W 003°09'816.0
2018-Aug-11 14:00N 53°31' W 003°22'918.2
2018-Aug-11 13:30N 53°31' W 003°38'918.4
2018-Aug-11 13:00N 53°32' W 003°53'1018.6
2018-Aug-11 12:29N 53°34' W 004°09'7119.3
2018-Aug-11 08:50N 53°20' W 006°05'5 1.0
2018-Aug-11 04:10N 53°21' W 006°13'0 0.6
2018-Aug-11 04:00N 53°21' W 006°13'6 9.5
2018-Aug-11 03:20N 53°21' W 006°02'718.6
2018-Aug-11 02:57N 53°24' W 005°51'1017.9
2018-Aug-11 02:24N 53°26' W 005°35'717.0
2018-Aug-11 02:00N 53°28' W 005°24'4919.5
2018-Aug-10 23:29N 53°34' W 004°03'918.8
2018-Aug-10 22:59N 53°34' W 003°47'918.3
2018-Aug-10 22:30N 53°33' W 003°32'918.0
2018-Aug-10 22:00N 53°32' W 003°17'815.4
2018-Aug-10 21:30N 53°29' W 003°05'3 6.0
2018-Aug-10 21:00N 53°27' W 003°01'0 0.9
2018-Aug-10 20:30N 53°27' W 003°01'0 0.0
2018-Aug-10 20:00N 53°27' W 003°01'0 0.0
2018-Aug-10 19:30N 53°27' W 003°01'0 0.0
2018-Aug-10 19:00N 53°27' W 003°01'0 0.0
2018-Aug-10 18:30N 53°27' W 003°01'0 0.0
2018-Aug-10 18:00N 53°27' W 003°01'0 0.0
2018-Aug-10 17:30N 53°27' W 003°01'0 0.0
2018-Aug-10 17:00N 53°27' W 003°01'0 0.0
2018-Aug-10 16:28N 53°27' W 003°01'0 0.0
2018-Aug-10 16:00N 53°27' W 003°01'0 0.8
2018-Aug-10 15:30N 53°27' W 003°01'0 0.4
2018-Aug-10 15:00N 53°27' W 003°01'713.1
2018-Aug-10 14:30N 53°32' W 003°09'816.1
2018-Aug-10 14:00N 53°31' W 003°23'918.5
2018-Aug-10 13:30N 53°31' W 003°38'918.6
2018-Aug-10 13:00N 53°32' W 003°54'8218.6
2018-Aug-10 08:35N 53°21' W 006°10'2 7.0
2018-Aug-10 08:20N 53°21' W 006°13'0 0.3
2018-Aug-10 07:54N 53°21' W 006°13'0 0.0
2018-Aug-10 07:27N 53°21' W 006°13'0 0.0
2018-Aug-10 06:59N 53°21' W 006°13'0 0.0
2018-Aug-10 06:21N 53°21' W 006°13'0 0.0
2018-Aug-10 05:05N 53°21' W 006°13'0 0.0
2018-Aug-10 04:47N 53°21' W 006°13'0 0.0
2018-Aug-10 04:26N 53°21' W 006°13'0 0.2
2018-Aug-10 03:59N 53°21' W 006°13'4 8.5
2018-Aug-10 03:30N 53°20' W 006°06'917.0
2018-Aug-10 03:00N 53°23' W 005°52'7318.7
2018-Aug-09 23:04N 53°34' W 003°50'517.9
2018-Aug-09 22:46N 53°34' W 003°42'518.4
2018-Aug-09 22:30N 53°34' W 003°33'918.1
2018-Aug-09 22:00N 53°32' W 003°18'816.0
2018-Aug-09 21:29N 53°29' W 003°05'4 8.6
2018-Aug-09 21:00N 53°26' W 003°01'0 0.2
2018-Aug-09 20:30N 53°26' W 003°01'1 2.0
2018-Aug-09 20:00N 53°27' W 003°01'0 0.0
2018-Aug-09 19:27N 53°27' W 003°01'0 0.0
2018-Aug-09 19:00N 53°27' W 003°01'0 0.0
2018-Aug-09 18:30N 53°27' W 003°01'0 0.0
2018-Aug-09 18:00N 53°27' W 003°01'0 0.0
2018-Aug-09 17:30N 53°27' W 003°01'0 0.0
2018-Aug-09 17:00N 53°27' W 003°01'0 0.0
2018-Aug-09 16:27N 53°27' W 003°01'0 0.6
2018-Aug-09 16:00N 53°27' W 003°01'1 1.7
2018-Aug-09 15:30N 53°26' W 003°01'0 0.0
2018-Aug-09 15:00N 53°26' W 003°01'0 0.3
2018-Aug-09 14:30N 53°26' W 003°01'713.1
2018-Aug-09 13:59N 53°32' W 003°08'816.0
2018-Aug-09 13:30N 53°31' W 003°21'919.0
2018-Aug-09 13:00N 53°31' W 003°37'918.8
2018-Aug-09 12:30N 53°32' W 003°53'8413.6
2018-Aug-09 06:18N 53°21' W 006°13'0 0.0
2018-Aug-09 05:12N 53°21' W 006°13'0 0.0
2018-Aug-09 04:46N 53°21' W 006°13'0 0.1
2018-Aug-09 04:03N 53°21' W 006°13'0 0.6
2018-Aug-09 03:58N 53°21' W 006°13'4 8.3
2018-Aug-09 03:27N 53°20' W 006°06'1016.5
2018-Aug-09 02:50N 53°24' W 005°50'6017.2
2018-Aug-08 23:23N 53°34' W 004°11'1517.9
2018-Aug-08 22:34N 53°34' W 003°47'219.2
2018-Aug-08 22:27N 53°33' W 003°43'818.9
2018-Aug-08 22:00N 53°33' W 003°29'918.6
2018-Aug-08 21:31N 53°31' W 003°14'815.7
2018-Aug-08 21:00N 53°27' W 003°02'1 1.1
2018-Aug-08 20:30N 53°27' W 003°01'0 0.6
2018-Aug-08 20:00N 53°27' W 003°01'0 0.0
2018-Aug-08 19:30N 53°27' W 003°01'0 0.0
2018-Aug-08 19:00N 53°27' W 003°01'0 0.0
2018-Aug-08 18:30N 53°27' W 003°01'0 0.0
2018-Aug-08 18:00N 53°27' W 003°01'0 0.0
2018-Aug-08 17:30N 53°27' W 003°01'0 0.0
2018-Aug-08 17:00N 53°27' W 003°01'0 0.0
2018-Aug-08 16:29N 53°27' W 003°01'1 1.3
2018-Aug-08 16:00N 53°27' W 003°01'0 0.8
2018-Aug-08 15:31N 53°26' W 003°01'0 0.3
2018-Aug-08 15:00N 53°26' W 003°01'612.6
2018-Aug-08 14:30N 53°31' W 003°07'815.7
2018-Aug-08 14:00N 53°31' W 003°20'817.0
2018-Aug-08 13:31N 53°31' W 003°35'916.5
2018-Aug-08 13:00N 53°32' W 003°49'916.5
2018-Aug-08 12:27N 53°34' W 004°03'71 7.7
2018-Aug-08 03:16N 53°21' W 006°00'716.6
2018-Aug-08 02:50N 53°24' W 005°49'  

Dump ship's entire track history